sensor_id;sensor_type;location;lat;lon;timestamp;P1;durP1;ratioP1;P2;durP2;ratioP2
78372;SDS011;67656;52.074;4.758;2023-10-31T00:03:48;2.65;;;0.98;;
78372;SDS011;67656;52.074;4.758;2023-10-31T00:08:48;6.72;;;1.15;;
78372;SDS011;67656;52.074;4.758;2023-10-31T00:13:49;4.95;;;1.40;;
78372;SDS011;67656;52.074;4.758;2023-10-31T00:18:49;8.65;;;2.88;;
78372;SDS011;67656;52.074;4.758;2023-10-31T00:23:50;15.43;;;3.97;;
78372;SDS011;67656;52.074;4.758;2023-10-31T00:28:50;17.70;;;5.65;;
78372;SDS011;67656;52.074;4.758;2023-10-31T00:33:51;19.55;;;5.38;;
78372;SDS011;67656;52.074;4.758;2023-10-31T00:38:52;21.17;;;6.45;;
78372;SDS011;67656;52.074;4.758;2023-10-31T00:43:52;19.30;;;5.63;;
78372;SDS011;67656;52.074;4.758;2023-10-31T00:48:55;23.80;;;6.13;;
78372;SDS011;67656;52.074;4.758;2023-10-31T00:53:56;18.50;;;4.82;;
78372;SDS011;67656;52.074;4.758;2023-10-31T00:58:57;14.10;;;4.70;;
78372;SDS011;67656;52.074;4.758;2023-10-31T01:03:57;16.63;;;5.15;;
78372;SDS011;67656;52.074;4.758;2023-10-31T01:08:58;17.52;;;5.30;;
78372;SDS011;67656;52.074;4.758;2023-10-31T01:13:59;18.33;;;5.28;;
78372;SDS011;67656;52.074;4.758;2023-10-31T01:18:59;17.35;;;5.15;;
78372;SDS011;67656;52.074;4.758;2023-10-31T01:24:00;17.13;;;5.55;;
78372;SDS011;67656;52.074;4.758;2023-10-31T01:29:00;14.23;;;6.05;;
78372;SDS011;67656;52.074;4.758;2023-10-31T01:34:01;18.17;;;6.20;;
78372;SDS011;67656;52.074;4.758;2023-10-31T01:39:02;17.00;;;6.07;;
78372;SDS011;67656;52.074;4.758;2023-10-31T01:44:02;20.50;;;5.88;;
78372;SDS011;67656;52.074;4.758;2023-10-31T01:49:03;17.95;;;4.70;;
78372;SDS011;67656;52.074;4.758;2023-10-31T01:54:04;10.98;;;3.42;;
78372;SDS011;67656;52.074;4.758;2023-10-31T01:59:05;11.90;;;2.92;;
78372;SDS011;67656;52.074;4.758;2023-10-31T02:04:06;6.85;;;2.58;;
78372;SDS011;67656;52.074;4.758;2023-10-31T02:09:07;8.05;;;2.45;;
78372;SDS011;67656;52.074;4.758;2023-10-31T02:14:07;9.55;;;2.28;;
78372;SDS011;67656;52.074;4.758;2023-10-31T02:19:08;10.25;;;2.40;;
78372;SDS011;67656;52.074;4.758;2023-10-31T02:24:09;9.75;;;2.20;;
78372;SDS011;67656;52.074;4.758;2023-10-31T02:29:11;9.13;;;2.00;;
78372;SDS011;67656;52.074;4.758;2023-10-31T02:34:13;5.88;;;1.92;;
78372;SDS011;67656;52.074;4.758;2023-10-31T02:39:14;7.07;;;2.25;;
78372;SDS011;67656;52.074;4.758;2023-10-31T02:44:14;5.45;;;1.95;;
78372;SDS011;67656;52.074;4.758;2023-10-31T02:49:16;4.30;;;1.92;;
78372;SDS011;67656;52.074;4.758;2023-10-31T02:54:16;6.88;;;1.70;;
78372;SDS011;67656;52.074;4.758;2023-10-31T02:59:17;5.97;;;2.03;;
78372;SDS011;67656;52.074;4.758;2023-10-31T03:04:17;5.28;;;1.80;;
78372;SDS011;67656;52.074;4.758;2023-10-31T03:09:18;4.45;;;1.55;;
78372;SDS011;67656;52.074;4.758;2023-10-31T03:14:19;3.65;;;1.10;;
78372;SDS011;67656;52.074;4.758;2023-10-31T03:19:19;1.50;;;0.77;;
78372;SDS011;67656;52.074;4.758;2023-10-31T03:24:21;4.97;;;0.90;;
78372;SDS011;67656;52.074;4.758;2023-10-31T03:29:21;3.47;;;0.70;;
78372;SDS011;67656;52.074;4.758;2023-10-31T03:34:22;3.78;;;0.52;;
78372;SDS011;67656;52.074;4.758;2023-10-31T03:39:22;0.50;;;0.28;;
78372;SDS011;67656;52.074;4.758;2023-10-31T03:44:23;2.25;;;0.40;;
78372;SDS011;67656;52.074;4.758;2023-10-31T03:49:23;0.95;;;0.30;;
78372;SDS011;67656;52.074;4.758;2023-10-31T03:54:24;3.83;;;0.40;;
78372;SDS011;67656;52.074;4.758;2023-10-31T03:59:24;5.18;;;0.57;;
78372;SDS011;67656;52.074;4.758;2023-10-31T04:04:25;0.75;;;0.30;;
78372;SDS011;67656;52.074;4.758;2023-10-31T04:09:25;0.50;;;0.22;;
78372;SDS011;67656;52.074;4.758;2023-10-31T04:14:26;2.13;;;0.50;;
78372;SDS011;67656;52.074;4.758;2023-10-31T04:19:27;2.40;;;0.40;;
78372;SDS011;67656;52.074;4.758;2023-10-31T04:24:27;1.40;;;0.40;;
78372;SDS011;67656;52.074;4.758;2023-10-31T04:29:28;1.77;;;0.80;;
78372;SDS011;67656;52.074;4.758;2023-10-31T04:34:28;4.47;;;1.42;;
78372;SDS011;67656;52.074;4.758;2023-10-31T04:39:29;4.38;;;2.05;;
78372;SDS011;67656;52.074;4.758;2023-10-31T04:44:29;5.10;;;2.10;;
78372;SDS011;67656;52.074;4.758;2023-10-31T04:49:30;4.13;;;1.90;;
78372;SDS011;67656;52.074;4.758;2023-10-31T04:54:30;5.65;;;2.10;;
78372;SDS011;67656;52.074;4.758;2023-10-31T04:59:31;8.98;;;2.22;;
78372;SDS011;67656;52.074;4.758;2023-10-31T05:04:32;7.00;;;2.03;;
78372;SDS011;67656;52.074;4.758;2023-10-31T05:09:32;5.20;;;2.28;;
78372;SDS011;67656;52.074;4.758;2023-10-31T05:14:33;5.40;;;1.92;;
78372;SDS011;67656;52.074;4.758;2023-10-31T05:19:33;3.60;;;1.63;;
78372;SDS011;67656;52.074;4.758;2023-10-31T05:24:34;4.75;;;1.40;;
78372;SDS011;67656;52.074;4.758;2023-10-31T05:29:34;2.65;;;1.30;;
78372;SDS011;67656;52.074;4.758;2023-10-31T05:34:35;3.65;;;1.20;;
78372;SDS011;67656;52.074;4.758;2023-10-31T05:39:35;5.35;;;1.70;;
78372;SDS011;67656;52.074;4.758;2023-10-31T05:44:38;11.20;;;2.97;;
78372;SDS011;67656;52.074;4.758;2023-10-31T05:49:39;11.45;;;3.20;;
78372;SDS011;67656;52.074;4.758;2023-10-31T05:54:40;10.63;;;3.22;;
78372;SDS011;67656;52.074;4.758;2023-10-31T05:59:40;12.57;;;3.30;;
78372;SDS011;67656;52.074;4.758;2023-10-31T06:04:41;10.50;;;3.28;;
78372;SDS011;67656;52.074;4.758;2023-10-31T06:09:41;12.93;;;3.38;;
78372;SDS011;67656;52.074;4.758;2023-10-31T06:14:41;9.93;;;3.38;;
78372;SDS011;67656;52.074;4.758;2023-10-31T06:19:42;6.55;;;3.22;;
78372;SDS011;67656;52.074;4.758;2023-10-31T06:24:42;7.13;;;3.67;;
78372;SDS011;67656;52.074;4.758;2023-10-31T06:29:43;7.93;;;3.50;;
78372;SDS011;67656;52.074;4.758;2023-10-31T06:34:43;6.28;;;3.53;;
78372;SDS011;67656;52.074;4.758;2023-10-31T06:45:52;8.40;;;3.00;;
78372;SDS011;67656;52.074;4.758;2023-10-31T06:50:53;5.28;;;2.90;;
78372;SDS011;67656;52.074;4.758;2023-10-31T06:55:54;6.72;;;3.00;;
78372;SDS011;67656;52.074;4.758;2023-10-31T07:01:06;8.20;;;2.75;;
78372;SDS011;67656;52.074;4.758;2023-10-31T07:06:16;6.35;;;2.90;;
78372;SDS011;67656;52.074;4.758;2023-10-31T07:11:17;5.38;;;2.30;;
78372;SDS011;67656;52.074;4.758;2023-10-31T07:16:17;5.82;;;2.40;;
78372;SDS011;67656;52.074;4.758;2023-10-31T07:21:18;7.00;;;2.45;;
78372;SDS011;67656;52.074;4.758;2023-10-31T07:26:18;4.85;;;2.15;;
78372;SDS011;67656;52.074;4.758;2023-10-31T07:31:22;8.15;;;2.78;;
78372;SDS011;67656;52.074;4.758;2023-10-31T07:36:25;5.60;;;2.22;;
78372;SDS011;67656;52.074;4.758;2023-10-31T07:41:29;7.63;;;2.17;;
78372;SDS011;67656;52.074;4.758;2023-10-31T07:46:32;5.07;;;2.08;;
78372;SDS011;67656;52.074;4.758;2023-10-31T07:58:08;5.90;;;2.17;;
78372;SDS011;67656;52.074;4.758;2023-10-31T08:03:11;5.43;;;2.05;;
78372;SDS011;67656;52.074;4.758;2023-10-31T08:08:19;4.60;;;2.20;;
78372;SDS011;67656;52.074;4.758;2023-10-31T08:13:41;8.60;;;2.60;;
78372;SDS011;67656;52.074;4.758;2023-10-31T08:19:23;7.55;;;2.58;;
78372;SDS011;67656;52.074;4.758;2023-10-31T08:24:23;7.60;;;3.13;;
78372;SDS011;67656;52.074;4.758;2023-10-31T08:48:04;9.73;;;3.72;;
78372;SDS011;67656;52.074;4.758;2023-10-31T08:53:23;12.45;;;4.10;;
78372;SDS011;67656;52.074;4.758;2023-10-31T09:04:45;10.63;;;4.32;;
78372;SDS011;67656;52.074;4.758;2023-10-31T09:33:12;17.60;;;5.35;;
78372;SDS011;67656;52.074;4.758;2023-10-31T09:38:32;13.60;;;4.82;;
78372;SDS011;67656;52.074;4.758;2023-10-31T09:43:45;13.40;;;4.40;;
78372;SDS011;67656;52.074;4.758;2023-10-31T09:48:58;12.88;;;4.30;;
78372;SDS011;67656;52.074;4.758;2023-10-31T10:00:43;11.45;;;3.50;;
78372;SDS011;67656;52.074;4.758;2023-10-31T10:24:15;7.15;;;1.77;;
78372;SDS011;67656;52.074;4.758;2023-10-31T10:29:16;9.10;;;1.85;;
78372;SDS011;67656;52.074;4.758;2023-10-31T10:34:17;8.15;;;1.98;;
78372;SDS011;67656;52.074;4.758;2023-10-31T10:39:18;6.55;;;1.92;;
78372;SDS011;67656;52.074;4.758;2023-10-31T10:44:22;9.88;;;2.03;;
78372;SDS011;67656;52.074;4.758;2023-10-31T10:49:38;9.10;;;2.05;;
78372;SDS011;67656;52.074;4.758;2023-10-31T11:11:16;7.35;;;2.42;;
78372;SDS011;67656;52.074;4.758;2023-10-31T11:16:30;10.02;;;2.90;;
78372;SDS011;67656;52.074;4.758;2023-10-31T11:21:53;5.38;;;2.22;;
78372;SDS011;67656;52.074;4.758;2023-10-31T11:26:59;7.20;;;2.67;;
78372;SDS011;67656;52.074;4.758;2023-10-31T11:32:08;15.98;;;4.70;;
78372;SDS011;67656;52.074;4.758;2023-10-31T11:37:24;12.93;;;5.95;;
78372;SDS011;67656;52.074;4.758;2023-10-31T11:42:36;23.08;;;8.77;;
78372;SDS011;67656;52.074;4.758;2023-10-31T11:47:45;24.20;;;9.32;;
78372;SDS011;67656;52.074;4.758;2023-10-31T11:52:58;27.98;;;11.05;;
78372;SDS011;67656;52.074;4.758;2023-10-31T11:58:22;28.13;;;8.90;;
78372;SDS011;67656;52.074;4.758;2023-10-31T12:03:49;23.67;;;9.20;;
78372;SDS011;67656;52.074;4.758;2023-10-31T12:09:06;22.30;;;9.10;;
78372;SDS011;67656;52.074;4.758;2023-10-31T12:14:41;21.95;;;9.02;;
78372;SDS011;67656;52.074;4.758;2023-10-31T12:19:54;19.40;;;7.63;;
78372;SDS011;67656;52.074;4.758;2023-10-31T12:25:08;17.40;;;6.82;;
78372;SDS011;67656;52.074;4.758;2023-10-31T12:30:17;18.05;;;7.30;;
78372;SDS011;67656;52.074;4.758;2023-10-31T12:35:21;16.60;;;6.15;;
78372;SDS011;67656;52.074;4.758;2023-10-31T12:40:23;14.23;;;6.47;;
78372;SDS011;67656;52.074;4.758;2023-10-31T12:45:24;17.60;;;6.15;;
78372;SDS011;67656;52.074;4.758;2023-10-31T12:50:25;14.15;;;5.90;;
78372;SDS011;67656;52.074;4.758;2023-10-31T12:55:27;15.02;;;6.45;;
78372;SDS011;67656;52.074;4.758;2023-10-31T13:00:31;15.57;;;6.47;;
78372;SDS011;67656;52.074;4.758;2023-10-31T13:05:33;15.05;;;7.20;;
78372;SDS011;67656;52.074;4.758;2023-10-31T13:10:34;17.38;;;7.45;;
78372;SDS011;67656;52.074;4.758;2023-10-31T13:15:35;14.77;;;7.28;;
78372;SDS011;67656;52.074;4.758;2023-10-31T13:20:35;16.35;;;7.13;;
78372;SDS011;67656;52.074;4.758;2023-10-31T13:25:36;17.73;;;7.72;;
78372;SDS011;67656;52.074;4.758;2023-10-31T13:30:36;19.77;;;8.32;;
78372;SDS011;67656;52.074;4.758;2023-10-31T13:35:37;23.92;;;8.95;;
78372;SDS011;67656;52.074;4.758;2023-10-31T13:40:40;25.77;;;10.40;;
78372;SDS011;67656;52.074;4.758;2023-10-31T13:45:41;32.17;;;11.82;;
78372;SDS011;67656;52.074;4.758;2023-10-31T13:50:41;36.17;;;14.48;;
78372;SDS011;67656;52.074;4.758;2023-10-31T13:55:44;37.70;;;13.60;;
78372;SDS011;67656;52.074;4.758;2023-10-31T14:00:45;37.15;;;14.23;;
78372;SDS011;67656;52.074;4.758;2023-10-31T14:05:45;33.00;;;12.45;;
78372;SDS011;67656;52.074;4.758;2023-10-31T14:10:46;31.92;;;11.48;;
78372;SDS011;67656;52.074;4.758;2023-10-31T14:15:47;24.33;;;9.93;;
78372;SDS011;67656;52.074;4.758;2023-10-31T14:20:47;22.52;;;8.88;;
78372;SDS011;67656;52.074;4.758;2023-10-31T14:25:48;21.50;;;8.20;;
78372;SDS011;67656;52.074;4.758;2023-10-31T14:30:48;19.02;;;7.47;;
78372;SDS011;67656;52.074;4.758;2023-10-31T14:35:49;19.85;;;7.15;;
78372;SDS011;67656;52.074;4.758;2023-10-31T14:40:52;17.17;;;7.23;;
78372;SDS011;67656;52.074;4.758;2023-10-31T14:45:53;18.17;;;6.38;;
78372;SDS011;67656;52.074;4.758;2023-10-31T14:50:54;14.02;;;5.47;;
78372;SDS011;67656;52.074;4.758;2023-10-31T14:55:54;13.52;;;5.28;;
78372;SDS011;67656;52.074;4.758;2023-10-31T15:00:55;15.38;;;5.72;;
78372;SDS011;67656;52.074;4.758;2023-10-31T15:05:55;16.55;;;5.20;;
78372;SDS011;67656;52.074;4.758;2023-10-31T15:10:55;17.63;;;5.75;;
78372;SDS011;67656;52.074;4.758;2023-10-31T15:15:56;12.93;;;4.82;;
78372;SDS011;67656;52.074;4.758;2023-10-31T15:20:56;15.15;;;5.20;;
78372;SDS011;67656;52.074;4.758;2023-10-31T15:25:57;14.18;;;5.30;;
78372;SDS011;67656;52.074;4.758;2023-10-31T15:30:58;14.38;;;5.32;;
78372;SDS011;67656;52.074;4.758;2023-10-31T15:35:58;15.43;;;5.50;;
78372;SDS011;67656;52.074;4.758;2023-10-31T15:40:59;14.60;;;5.35;;
78372;SDS011;67656;52.074;4.758;2023-10-31T15:45:59;13.63;;;5.28;;
78372;SDS011;67656;52.074;4.758;2023-10-31T15:51:00;13.60;;;4.70;;
78372;SDS011;67656;52.074;4.758;2023-10-31T15:56:00;11.43;;;5.10;;
78372;SDS011;67656;52.074;4.758;2023-10-31T16:01:01;11.07;;;4.82;;
78372;SDS011;67656;52.074;4.758;2023-10-31T16:06:01;13.23;;;5.45;;
78372;SDS011;67656;52.074;4.758;2023-10-31T16:11:04;14.77;;;5.32;;
78372;SDS011;67656;52.074;4.758;2023-10-31T16:16:07;15.95;;;5.90;;
78372;SDS011;67656;52.074;4.758;2023-10-31T16:26:38;14.50;;;5.95;;
78372;SDS011;67656;52.074;4.758;2023-10-31T16:31:38;14.88;;;6.15;;
78372;SDS011;67656;52.074;4.758;2023-10-31T16:36:39;16.38;;;5.57;;
78372;SDS011;67656;52.074;4.758;2023-10-31T16:41:40;15.63;;;6.82;;
78372;SDS011;67656;52.074;4.758;2023-10-31T16:46:50;14.82;;;5.78;;
78372;SDS011;67656;52.074;4.758;2023-10-31T16:52:08;19.50;;;6.15;;
78372;SDS011;67656;52.074;4.758;2023-10-31T17:03:01;23.05;;;8.10;;
78372;SDS011;67656;52.074;4.758;2023-10-31T17:08:02;21.23;;;7.70;;
78372;SDS011;67656;52.074;4.758;2023-10-31T17:13:02;23.67;;;7.53;;
78372;SDS011;67656;52.074;4.758;2023-10-31T17:18:03;24.88;;;8.00;;
78372;SDS011;67656;52.074;4.758;2023-10-31T17:23:03;20.35;;;7.43;;
78372;SDS011;67656;52.074;4.758;2023-10-31T17:28:04;21.27;;;7.40;;
78372;SDS011;67656;52.074;4.758;2023-10-31T17:33:07;25.65;;;8.50;;
78372;SDS011;67656;52.074;4.758;2023-10-31T17:38:07;26.05;;;8.93;;
78372;SDS011;67656;52.074;4.758;2023-10-31T17:43:08;27.58;;;8.95;;
78372;SDS011;67656;52.074;4.758;2023-10-31T17:48:11;27.57;;;9.47;;
78372;SDS011;67656;52.074;4.758;2023-10-31T17:53:11;29.40;;;9.77;;
78372;SDS011;67656;52.074;4.758;2023-10-31T17:58:12;26.85;;;9.70;;
78372;SDS011;67656;52.074;4.758;2023-10-31T18:03:12;24.40;;;10.13;;
78372;SDS011;67656;52.074;4.758;2023-10-31T18:08:13;24.50;;;9.52;;
78372;SDS011;67656;52.074;4.758;2023-10-31T18:13:19;27.73;;;9.70;;
78372;SDS011;67656;52.074;4.758;2023-10-31T18:18:22;29.20;;;10.18;;
78372;SDS011;67656;52.074;4.758;2023-10-31T18:23:22;29.88;;;9.57;;
78372;SDS011;67656;52.074;4.758;2023-10-31T18:28:25;28.17;;;8.55;;
78372;SDS011;67656;52.074;4.758;2023-10-31T18:33:26;27.80;;;9.60;;
78372;SDS011;67656;52.074;4.758;2023-10-31T18:38:26;28.65;;;9.73;;
78372;SDS011;67656;52.074;4.758;2023-10-31T18:43:27;29.05;;;10.07;;
78372;SDS011;67656;52.074;4.758;2023-10-31T18:48:28;29.90;;;9.77;;
78372;SDS011;67656;52.074;4.758;2023-10-31T18:53:28;28.02;;;9.20;;
78372;SDS011;67656;52.074;4.758;2023-10-31T18:58:29;28.98;;;10.20;;
78372;SDS011;67656;52.074;4.758;2023-10-31T19:03:29;28.23;;;10.10;;
78372;SDS011;67656;52.074;4.758;2023-10-31T19:08:30;29.42;;;10.48;;
78372;SDS011;67656;52.074;4.758;2023-10-31T19:13:30;29.77;;;10.02;;
78372;SDS011;67656;52.074;4.758;2023-10-31T19:18:31;31.60;;;10.52;;
78372;SDS011;67656;52.074;4.758;2023-10-31T19:23:31;31.98;;;10.15;;
78372;SDS011;67656;52.074;4.758;2023-10-31T19:28:41;33.35;;;10.85;;
78372;SDS011;67656;52.074;4.758;2023-10-31T19:33:45;53.20;;;17.57;;
78372;SDS011;67656;52.074;4.758;2023-10-31T19:51:17;32.55;;;10.70;;
78372;SDS011;67656;52.074;4.758;2023-10-31T20:01:52;24.40;;;8.85;;
78372;SDS011;67656;52.074;4.758;2023-10-31T20:07:02;21.35;;;7.97;;
78372;SDS011;67656;52.074;4.758;2023-10-31T20:12:03;13.65;;;5.13;;
78372;SDS011;67656;52.074;4.758;2023-10-31T20:17:04;21.10;;;10.05;;
78372;SDS011;67656;52.074;4.758;2023-10-31T20:22:07;32.30;;;14.88;;
78372;SDS011;67656;52.074;4.758;2023-10-31T20:27:19;27.52;;;12.02;;
78372;SDS011;67656;52.074;4.758;2023-10-31T20:32:22;22.45;;;8.40;;
78372;SDS011;67656;52.074;4.758;2023-10-31T20:37:26;19.17;;;8.57;;
78372;SDS011;67656;52.074;4.758;2023-10-31T20:42:30;13.57;;;4.97;;
78372;SDS011;67656;52.074;4.758;2023-10-31T20:47:36;9.52;;;3.70;;
78372;SDS011;67656;52.074;4.758;2023-10-31T20:58:21;9.50;;;4.10;;
78372;SDS011;67656;52.074;4.758;2023-10-31T21:03:22;6.43;;;2.90;;
78372;SDS011;67656;52.074;4.758;2023-10-31T21:08:22;9.55;;;3.25;;
78372;SDS011;67656;52.074;4.758;2023-10-31T21:13:23;11.55;;;4.10;;
78372;SDS011;67656;52.074;4.758;2023-10-31T21:18:23;15.18;;;5.22;;
78372;SDS011;67656;52.074;4.758;2023-10-31T21:23:23;21.65;;;7.80;;
78372;SDS011;67656;52.074;4.758;2023-10-31T21:28:27;24.40;;;8.48;;
78372;SDS011;67656;52.074;4.758;2023-10-31T21:33:27;27.83;;;9.07;;
78372;SDS011;67656;52.074;4.758;2023-10-31T21:38:28;23.80;;;8.82;;
78372;SDS011;67656;52.074;4.758;2023-10-31T21:43:28;30.13;;;9.63;;
78372;SDS011;67656;52.074;4.758;2023-10-31T21:48:29;17.55;;;5.15;;
78372;SDS011;67656;52.074;4.758;2023-10-31T21:53:29;6.97;;;2.22;;
78372;SDS011;67656;52.074;4.758;2023-10-31T21:58:30;7.13;;;2.20;;
78372;SDS011;67656;52.074;4.758;2023-10-31T22:03:30;5.45;;;1.80;;
78372;SDS011;67656;52.074;4.758;2023-10-31T22:08:31;5.30;;;2.15;;
78372;SDS011;67656;52.074;4.758;2023-10-31T22:13:31;6.47;;;2.20;;
78372;SDS011;67656;52.074;4.758;2023-10-31T22:18:31;8.05;;;2.25;;
78372;SDS011;67656;52.074;4.758;2023-10-31T22:23:32;6.57;;;1.80;;
78372;SDS011;67656;52.074;4.758;2023-10-31T22:28:35;8.25;;;2.50;;
78372;SDS011;67656;52.074;4.758;2023-10-31T22:33:36;10.60;;;2.25;;
78372;SDS011;67656;52.074;4.758;2023-10-31T22:38:36;10.32;;;3.10;;
78372;SDS011;67656;52.074;4.758;2023-10-31T22:43:37;6.00;;;2.95;;
78372;SDS011;67656;52.074;4.758;2023-10-31T22:48:37;9.10;;;3.30;;
78372;SDS011;67656;52.074;4.758;2023-10-31T22:53:38;13.32;;;3.63;;
78372;SDS011;67656;52.074;4.758;2023-10-31T22:58:38;10.25;;;3.35;;
78372;SDS011;67656;52.074;4.758;2023-10-31T23:03:39;10.55;;;3.03;;
78372;SDS011;67656;52.074;4.758;2023-10-31T23:08:39;12.55;;;3.00;;
78372;SDS011;67656;52.074;4.758;2023-10-31T23:13:40;13.48;;;2.80;;
78372;SDS011;67656;52.074;4.758;2023-10-31T23:18:41;9.93;;;2.65;;
78372;SDS011;67656;52.074;4.758;2023-10-31T23:23:41;8.45;;;2.30;;
78372;SDS011;67656;52.074;4.758;2023-10-31T23:28:41;7.80;;;2.53;;
78372;SDS011;67656;52.074;4.758;2023-10-31T23:33:42;10.93;;;2.25;;
78372;SDS011;67656;52.074;4.758;2023-10-31T23:38:42;9.63;;;2.80;;
78372;SDS011;67656;52.074;4.758;2023-10-31T23:43:43;13.38;;;2.65;;
78372;SDS011;67656;52.074;4.758;2023-10-31T23:48:43;8.10;;;2.35;;
78372;SDS011;67656;52.074;4.758;2023-10-31T23:53:43;8.93;;;1.90;;
78372;SDS011;67656;52.074;4.758;2023-10-31T23:58:44;6.78;;;1.98;;
